Dionea — ISYR — position and weather

sailwx.info

Track history (hours):
 
Tides and Currents Weather Stations Pressure Air Temp Water Temp Dewpoint Dewpoint Depression Visibility Wind Speed Wind Dir Waves Ship Positions

Dionea

Last reported at 2015-Jul-03 11:23 UTC. Time now 2015-Jul-03 12:23 UTC.
Position N 40°40' E 013°43'.

Length 52 m.

MMSI: 247159400.

Date/timePositionNaut miles runAvg speedWind from/ knotsBaromVisibWave heightAir tempDewpointWater temp
2015-Jul-03 11:23N 40°40' E 013°43'1112.7
2015-Jul-03 10:33N 40°41' E 013°29'1212.5
2015-Jul-03 09:33N 40°41' E 013°12'1312.5
2015-Jul-03 08:33N 40°43' E 012°56'1312.5
2015-Jul-03 07:29N 40°43' E 012°38'2612.2
2015-Jul-03 05:23N 40°46' E 012°05'1012.2
2015-Jul-03 04:33N 40°47' E 011°51'1212.5
2015-Jul-03 03:33N 40°48' E 011°35'4012.7
2015-Jul-03 00:23N 40°54' E 010°42'1012.7
2015-Jul-02 23:33N 40°56' E 010°29'43 1.4
2015-Jul-01 17:29N 41°02' E 009°32'0 0.0
2015-Jul-01 14:09N 41°02' E 009°32'0 0.0
2015-Jun-30 18:04N 41°02' E 009°32'0 0.0
2015-Jun-30 15:15N 41°02' E 009°32'0 0.0
2015-Jun-30 14:33N 41°02' E 009°32'0 0.0
2015-Jun-30 13:33N 41°02' E 009°32'10 0.4
2015-Jun-29 12:26N 41°12' E 009°34'  
Track history (hours):
 
Tides and Currents Weather Stations Pressure Air Temp Water Temp Dewpoint Dewpoint Depression Visibility Wind Speed Wind Dir Waves Ship Positions

Dionea

Last reported at 2015-Jul-03 11:23 UTC. Time now 2015-Jul-03 12:23 UTC.
Position N 40°40' E 013°43'.

Length 52 m.

MMSI: 247159400.

Date/timePositionNaut miles runAvg speedWind from/ knotsBaromVisibWave heightAir tempDewpointWater temp
2015-Jul-03 11:23N 40°40' E 013°43'1112.7
2015-Jul-03 10:33N 40°41' E 013°29'1212.5
2015-Jul-03 09:33N 40°41' E 013°12'1312.5
2015-Jul-03 08:33N 40°43' E 012°56'1312.5
2015-Jul-03 07:29N 40°43' E 012°38'2612.2
2015-Jul-03 05:23N 40°46' E 012°05'1012.2
2015-Jul-03 04:33N 40°47' E 011°51'1212.5
2015-Jul-03 03:33N 40°48' E 011°35'4012.7
2015-Jul-03 00:23N 40°54' E 010°42'1012.7
2015-Jul-02 23:33N 40°56' E 010°29'43 1.4
2015-Jul-01 17:29N 41°02' E 009°32'0 0.0
2015-Jul-01 14:09N 41°02' E 009°32'0 0.0
2015-Jun-30 18:04N 41°02' E 009°32'0 0.0
2015-Jun-30 15:15N 41°02' E 009°32'0 0.0
2015-Jun-30 14:33N 41°02' E 009°32'0 0.0
2015-Jun-30 13:33N 41°02' E 009°32'10 0.4
2015-Jun-29 12:26N 41°12' E 009°34'  

Dump ship's entire track history